Colorado Springs, CO (80916)

11:27 PM MDT on August 27, 2015 (GMT -0600)
Barnstormers Landing | | Change Station
CLOSE
Current Station
Personal Weather Station
Location: Colorado Springs, CO
Elevation: 5991 ft
Nearby Weather Stations

Elev 5991 ft 38.78 °N, 104.73 °W | Updated 8 seconds ago

Mostly Cloudy
Mostly Cloudy
62.2 °F
Feels Like 62.2 °F
N
0.8
Wind Variable Wind from North
Gusts 3.8 mph

Today
High -- | Low -- °F
--% Chance of Precip.
Yesterday
High -- | Low -- °F
Precip. -- in
6:23 AM 7:36 PM
Waxing Gibbous, 96% visible
Pressure 29.99 in
Visibility 10.0 miles
Clouds Scattered Clouds 8000 ft
Mostly Cloudy 12000 ft
Dew Point 58 °F
Humidity 86%
Rainfall 0.09 in
Snow Depth Not available.
UV 0 out of 12
Pollen 9.60 out of 12
Air Quality Not available.
Flu Activity Not available.
METAR KCOS 280454Z 00000KT 10SM SCT080 BKN120 18/12 A3026 RMK AO2 SLP156 T01780117 $
Pressure 29.99 in
Visibility 10.0 miles
Clouds Scattered Clouds 8000 ft
Mostly Cloudy 12000 ft
Dew Point 58 °F
Humidity 86%
Rainfall 0.09 in
Snow Depth Not available.
UV 0 out of 12
Pollen 9.60 out of 12
Air Quality Not available.
Flu Activity Not available.
METAR KCOS 280454Z 00000KT 10SM SCT080 BKN120 18/12 A3026 RMK AO2 SLP156 T01780117 $

10-Day Weather Forecast

×

Almanac

Astronomy

Aug. 27, 2015 Rise Set
Actual Time
Civil Twilight
Nautical Twilight
Astronomical Twilight
Moon
Length of Visible Light
Length of Day
Tomorrow will be .
, % of the Moon is Illuminated

Today's Extremes

State Highs State Lows

Community

WunderPhotos

Upload Photos

1,850,340 photos uploaded!

WunderBlogs® & News

Nearby

Air Quality

  Air Quality AQ Index Pollutant
Not available.

Snow Depth

Station Depth Elevation

Earthquake Activity

City Distance Mag. Time & Date
Minimum magnitude displayed is 2.5.

Coastal Water Temperatures

Place Temperature

Stations

Nearby Weather Stations

Station Location Temp. Windchill Dew Point Humidity Wind Precip. Elev Updated Type